sensor_id;sensor_type;location;lat;lon;timestamp;P1;durP1;ratioP1;P2;durP2;ratioP2
49450;SDS011;35336;48.400;10.886;2023-02-08T00:00:12;16.23;;;9.30;;
49450;SDS011;35336;48.400;10.886;2023-02-08T00:00:28;15.93;;;9.83;;
49450;SDS011;35336;48.400;10.886;2023-02-08T00:00:43;16.05;;;10.00;;
49450;SDS011;35336;48.400;10.886;2023-02-08T00:00:59;14.90;;;9.57;;
49450;SDS011;35336;48.400;10.886;2023-02-08T00:01:15;14.80;;;9.57;;
49450;SDS011;35336;48.400;10.886;2023-02-08T00:01:34;17.33;;;9.70;;
49450;SDS011;35336;48.400;10.886;2023-02-08T00:01:50;19.70;;;9.97;;
49450;SDS011;35336;48.400;10.886;2023-02-08T00:02:05;20.83;;;10.07;;
49450;SDS011;35336;48.400;10.886;2023-02-08T00:02:20;20.40;;;9.82;;
49450;SDS011;35336;48.400;10.886;2023-02-08T00:02:36;18.30;;;9.60;;
49450;SDS011;35336;48.400;10.886;2023-02-08T00:02:51;17.77;;;9.48;;
49450;SDS011;35336;48.400;10.886;2023-02-08T00:03:06;18.37;;;9.83;;
49450;SDS011;35336;48.400;10.886;2023-02-08T00:03:22;17.60;;;10.13;;
49450;SDS011;35336;48.400;10.886;2023-02-08T00:03:37;16.20;;;9.77;;
49450;SDS011;35336;48.400;10.886;2023-02-08T00:03:52;15.30;;;9.63;;
49450;SDS011;35336;48.400;10.886;2023-02-08T00:04:08;16.43;;;9.70;;
49450;SDS011;35336;48.400;10.886;2023-02-08T00:04:23;16.17;;;9.30;;
49450;SDS011;35336;48.400;10.886;2023-02-08T00:04:38;15.33;;;9.20;;
49450;SDS011;35336;48.400;10.886;2023-02-08T00:04:53;16.60;;;9.60;;
49450;SDS011;35336;48.400;10.886;2023-02-08T00:05:09;17.33;;;10.00;;
49450;SDS011;35336;48.400;10.886;2023-02-08T00:05:24;16.47;;;10.00;;
49450;SDS011;35336;48.400;10.886;2023-02-08T00:05:39;18.47;;;9.97;;
49450;SDS011;35336;48.400;10.886;2023-02-08T00:05:55;18.50;;;10.05;;
49450;SDS011;35336;48.400;10.886;2023-02-08T00:06:10;17.77;;;9.87;;
49450;SDS011;35336;48.400;10.886;2023-02-08T00:06:26;19.30;;;9.65;;
49450;SDS011;35336;48.400;10.886;2023-02-08T00:06:41;18.57;;;10.00;;
49450;SDS011;35336;48.400;10.886;2023-02-08T00:06:56;17.60;;;10.23;;
49450;SDS011;35336;48.400;10.886;2023-02-08T00:07:12;19.08;;;10.70;;
49450;SDS011;35336;48.400;10.886;2023-02-08T00:07:27;19.27;;;10.63;;
49450;SDS011;35336;48.400;10.886;2023-02-08T00:07:42;19.63;;;10.07;;
49450;SDS011;35336;48.400;10.886;2023-02-08T00:07:58;19.90;;;10.00;;
49450;SDS011;35336;48.400;10.886;2023-02-08T00:08:13;17.30;;;9.73;;
49450;SDS011;35336;48.400;10.886;2023-02-08T00:08:29;16.23;;;9.75;;
49450;SDS011;35336;48.400;10.886;2023-02-08T00:08:45;15.60;;;9.32;;
49450;SDS011;35336;48.400;10.886;2023-02-08T00:09:00;18.40;;;9.53;;
49450;SDS011;35336;48.400;10.886;2023-02-08T00:09:16;22.58;;;9.88;;
49450;SDS011;35336;48.400;10.886;2023-02-08T00:09:31;21.60;;;10.00;;
49450;SDS011;35336;48.400;10.886;2023-02-08T00:09:46;17.83;;;10.33;;
49450;SDS011;35336;48.400;10.886;2023-02-08T00:10:02;17.55;;;10.35;;
49450;SDS011;35336;48.400;10.886;2023-02-08T00:10:17;18.03;;;10.20;;
49450;SDS011;35336;48.400;10.886;2023-02-08T00:10:33;18.75;;;10.05;;
49450;SDS011;35336;48.400;10.886;2023-02-08T00:10:48;19.40;;;9.87;;
49450;SDS011;35336;48.400;10.886;2023-02-08T00:11:05;20.63;;;9.82;;
49450;SDS011;35336;48.400;10.886;2023-02-08T00:11:21;20.50;;;10.30;;
49450;SDS011;35336;48.400;10.886;2023-02-08T00:11:36;19.90;;;10.67;;
49450;SDS011;35336;48.400;10.886;2023-02-08T00:11:52;19.53;;;10.67;;
49450;SDS011;35336;48.400;10.886;2023-02-08T00:12:07;17.97;;;10.63;;
49450;SDS011;35336;48.400;10.886;2023-02-08T00:12:22;18.42;;;10.57;;
49450;SDS011;35336;48.400;10.886;2023-02-08T00:12:38;23.77;;;10.60;;
49450;SDS011;35336;48.400;10.886;2023-02-08T00:12:53;26.33;;;10.63;;
49450;SDS011;35336;48.400;10.886;2023-02-08T00:13:08;20.50;;;10.57;;
49450;SDS011;35336;48.400;10.886;2023-02-08T00:13:24;18.03;;;10.83;;
49450;SDS011;35336;48.400;10.886;2023-02-08T00:13:39;17.43;;;10.80;;
49450;SDS011;35336;48.400;10.886;2023-02-08T00:13:55;18.25;;;10.73;;
49450;SDS011;35336;48.400;10.886;2023-02-08T00:14:10;19.27;;;10.68;;
49450;SDS011;35336;48.400;10.886;2023-02-08T00:14:26;17.70;;;10.10;;
49450;SDS011;35336;48.400;10.886;2023-02-08T00:14:41;18.07;;;10.23;;
49450;SDS011;35336;48.400;10.886;2023-02-08T00:14:57;19.17;;;10.82;;
49450;SDS011;35336;48.400;10.886;2023-02-08T00:15:12;19.70;;;10.77;;
49450;SDS011;35336;48.400;10.886;2023-02-08T00:15:27;19.88;;;11.10;;
49450;SDS011;35336;48.400;10.886;2023-02-08T00:15:44;18.27;;;10.80;;
49450;SDS011;35336;48.400;10.886;2023-02-08T00:16:00;18.73;;;10.20;;
49450;SDS011;35336;48.400;10.886;2023-02-08T00:16:15;19.00;;;10.60;;
49450;SDS011;35336;48.400;10.886;2023-02-08T00:16:30;17.55;;;10.73;;
49450;SDS011;35336;48.400;10.886;2023-02-08T00:16:45;17.20;;;10.30;;
49450;SDS011;35336;48.400;10.886;2023-02-08T00:17:01;16.20;;;10.23;;
49450;SDS011;35336;48.400;10.886;2023-02-08T00:17:16;18.77;;;11.20;;
49450;SDS011;35336;48.400;10.886;2023-02-08T00:17:31;21.53;;;11.20;;
49450;SDS011;35336;48.400;10.886;2023-02-08T00:17:46;21.90;;;10.70;;
49450;SDS011;35336;48.400;10.886;2023-02-08T00:18:02;18.23;;;10.20;;
49450;SDS011;35336;48.400;10.886;2023-02-08T00:18:17;18.03;;;10.63;;
49450;SDS011;35336;48.400;10.886;2023-02-08T00:18:33;18.38;;;10.48;;
49450;SDS011;35336;48.400;10.886;2023-02-08T00:18:48;17.10;;;10.07;;
49450;SDS011;35336;48.400;10.886;2023-02-08T00:19:04;17.43;;;10.43;;
49450;SDS011;35336;48.400;10.886;2023-02-08T00:19:19;18.92;;;10.32;;
49450;SDS011;35336;48.400;10.886;2023-02-08T00:19:34;20.10;;;10.93;;
49450;SDS011;35336;48.400;10.886;2023-02-08T00:19:50;21.13;;;11.77;;
49450;SDS011;35336;48.400;10.886;2023-02-08T00:20:05;21.00;;;11.27;;
49450;SDS011;35336;48.400;10.886;2023-02-08T00:20:21;18.27;;;10.40;;
49450;SDS011;35336;48.400;10.886;2023-02-08T00:20:37;15.48;;;9.63;;
49450;SDS011;35336;48.400;10.886;2023-02-08T00:20:53;15.88;;;9.90;;
49450;SDS011;35336;48.400;10.886;2023-02-08T00:21:09;19.23;;;10.43;;
49450;SDS011;35336;48.400;10.886;2023-02-08T00:21:27;19.13;;;10.63;;
49450;SDS011;35336;48.400;10.886;2023-02-08T00:21:42;16.67;;;10.23;;
49450;SDS011;35336;48.400;10.886;2023-02-08T00:21:57;16.87;;;10.20;;
49450;SDS011;35336;48.400;10.886;2023-02-08T00:22:13;16.27;;;10.02;;
49450;SDS011;35336;48.400;10.886;2023-02-08T00:22:28;19.07;;;10.10;;
49450;SDS011;35336;48.400;10.886;2023-02-08T00:22:44;19.17;;;10.07;;
49450;SDS011;35336;48.400;10.886;2023-02-08T00:22:59;15.43;;;9.83;;
49450;SDS011;35336;48.400;10.886;2023-02-08T00:23:14;16.03;;;10.27;;
49450;SDS011;35336;48.400;10.886;2023-02-08T00:23:30;17.20;;;10.38;;
49450;SDS011;35336;48.400;10.886;2023-02-08T00:23:45;17.47;;;10.60;;
49450;SDS011;35336;48.400;10.886;2023-02-08T00:24:01;20.65;;;11.18;;
49450;SDS011;35336;48.400;10.886;2023-02-08T00:24:17;19.80;;;10.68;;
49450;SDS011;35336;48.400;10.886;2023-02-08T00:24:32;19.53;;;10.77;;
49450;SDS011;35336;48.400;10.886;2023-02-08T00:24:48;20.73;;;11.13;;
49450;SDS011;35336;48.400;10.886;2023-02-08T00:25:04;16.85;;;10.48;;
49450;SDS011;35336;48.400;10.886;2023-02-08T00:25:21;17.02;;;10.20;;
49450;SDS011;35336;48.400;10.886;2023-02-08T00:25:36;18.87;;;10.07;;
49450;SDS011;35336;48.400;10.886;2023-02-08T00:25:52;16.80;;;10.00;;
49450;SDS011;35336;48.400;10.886;2023-02-08T00:26:07;16.57;;;10.33;;
49450;SDS011;35336;48.400;10.886;2023-02-08T00:26:23;19.13;;;10.65;;
49450;SDS011;35336;48.400;10.886;2023-02-08T00:26:38;19.33;;;10.70;;
49450;SDS011;35336;48.400;10.886;2023-02-08T00:26:53;18.35;;;10.55;;
49450;SDS011;35336;48.400;10.886;2023-02-08T00:27:09;17.97;;;10.43;;
49450;SDS011;35336;48.400;10.886;2023-02-08T00:27:24;17.97;;;10.40;;
49450;SDS011;35336;48.400;10.886;2023-02-08T00:27:39;18.73;;;10.60;;
49450;SDS011;35336;48.400;10.886;2023-02-08T00:27:55;19.83;;;10.77;;
49450;SDS011;35336;48.400;10.886;2023-02-08T00:28:14;22.77;;;10.70;;
49450;SDS011;35336;48.400;10.886;2023-02-08T00:28:30;20.23;;;10.45;;
49450;SDS011;35336;48.400;10.886;2023-02-08T00:28:45;18.73;;;10.63;;
49450;SDS011;35336;48.400;10.886;2023-02-08T00:29:01;17.77;;;10.53;;
49450;SDS011;35336;48.400;10.886;2023-02-08T00:29:16;17.40;;;10.50;;
49450;SDS011;35336;48.400;10.886;2023-02-08T00:29:31;17.88;;;10.68;;
49450;SDS011;35336;48.400;10.886;2023-02-08T00:29:46;19.57;;;10.37;;
49450;SDS011;35336;48.400;10.886;2023-02-08T00:30:02;19.57;;;10.33;;
49450;SDS011;35336;48.400;10.886;2023-02-08T00:30:18;18.27;;;10.73;;
49450;SDS011;35336;48.400;10.886;2023-02-08T00:30:33;17.92;;;10.52;;
49450;SDS011;35336;48.400;10.886;2023-02-08T00:30:48;17.60;;;10.70;;
49450;SDS011;35336;48.400;10.886;2023-02-08T00:31:04;17.60;;;10.53;;
49450;SDS011;35336;48.400;10.886;2023-02-08T00:31:19;17.25;;;10.13;;
49450;SDS011;35336;48.400;10.886;2023-02-08T00:31:35;19.10;;;10.30;;
49450;SDS011;35336;48.400;10.886;2023-02-08T00:31:50;18.67;;;10.07;;
49450;SDS011;35336;48.400;10.886;2023-02-08T00:32:05;17.07;;;10.17;;
49450;SDS011;35336;48.400;10.886;2023-02-08T00:32:20;20.53;;;10.77;;
49450;SDS011;35336;48.400;10.886;2023-02-08T00:32:36;21.92;;;10.63;;
49450;SDS011;35336;48.400;10.886;2023-02-08T00:32:51;18.70;;;9.87;;
49450;SDS011;35336;48.400;10.886;2023-02-08T00:33:06;17.80;;;9.80;;
49450;SDS011;35336;48.400;10.886;2023-02-08T00:33:22;19.00;;;10.18;;
49450;SDS011;35336;48.400;10.886;2023-02-08T00:33:38;19.40;;;10.48;;
49450;SDS011;35336;48.400;10.886;2023-02-08T00:33:53;18.67;;;10.93;;
49450;SDS011;35336;48.400;10.886;2023-02-08T00:34:09;18.83;;;10.70;;
49450;SDS011;35336;48.400;10.886;2023-02-08T00:34:24;17.50;;;10.13;;
49450;SDS011;35336;48.400;10.886;2023-02-08T00:34:39;17.10;;;10.37;;
49450;SDS011;35336;48.400;10.886;2023-02-08T00:34:55;16.80;;;10.75;;
49450;SDS011;35336;48.400;10.886;2023-02-08T00:35:10;16.87;;;10.23;;
49450;SDS011;35336;48.400;10.886;2023-02-08T00:35:25;18.37;;;10.50;;
49450;SDS011;35336;48.400;10.886;2023-02-08T00:35:41;18.77;;;11.15;;
49450;SDS011;35336;48.400;10.886;2023-02-08T00:35:57;19.47;;;10.83;;
49450;SDS011;35336;48.400;10.886;2023-02-08T00:36:13;19.27;;;10.48;;
49450;SDS011;35336;48.400;10.886;2023-02-08T00:36:28;17.85;;;10.68;;
49450;SDS011;35336;48.400;10.886;2023-02-08T00:36:44;19.27;;;10.73;;
49450;SDS011;35336;48.400;10.886;2023-02-08T00:37:00;19.17;;;11.07;;
49450;SDS011;35336;48.400;10.886;2023-02-08T00:37:15;18.90;;;10.98;;
49450;SDS011;35336;48.400;10.886;2023-02-08T00:37:30;21.17;;;11.52;;
49450;SDS011;35336;48.400;10.886;2023-02-08T00:37:46;22.07;;;11.63;;
49450;SDS011;35336;48.400;10.886;2023-02-08T00:38:01;20.30;;;11.10;;
49450;SDS011;35336;48.400;10.886;2023-02-08T00:38:17;19.50;;;11.45;;
49450;SDS011;35336;48.400;10.886;2023-02-08T00:38:32;21.17;;;11.23;;
49450;SDS011;35336;48.400;10.886;2023-02-08T00:38:47;19.15;;;10.60;;
49450;SDS011;35336;48.400;10.886;2023-02-08T00:39:03;18.20;;;10.97;;
49450;SDS011;35336;48.400;10.886;2023-02-08T00:39:18;18.17;;;11.13;;
49450;SDS011;35336;48.400;10.886;2023-02-08T00:39:33;18.77;;;11.37;;
49450;SDS011;35336;48.400;10.886;2023-02-08T00:39:48;17.98;;;10.93;;
49450;SDS011;35336;48.400;10.886;2023-02-08T00:40:04;17.57;;;10.63;;
49450;SDS011;35336;48.400;10.886;2023-02-08T00:40:19;19.88;;;11.43;;
49450;SDS011;35336;48.400;10.886;2023-02-08T00:40:35;18.93;;;11.63;;
49450;SDS011;35336;48.400;10.886;2023-02-08T00:40:50;19.57;;;11.60;;
49450;SDS011;35336;48.400;10.886;2023-02-08T00:41:05;20.67;;;11.13;;
49450;SDS011;35336;48.400;10.886;2023-02-08T00:41:21;19.80;;;10.97;;
49450;SDS011;35336;48.400;10.886;2023-02-08T00:41:36;19.37;;;11.43;;
49450;SDS011;35336;48.400;10.886;2023-02-08T00:41:51;17.67;;;10.65;;
49450;SDS011;35336;48.400;10.886;2023-02-08T00:42:07;19.57;;;10.53;;
49450;SDS011;35336;48.400;10.886;2023-02-08T00:42:22;21.48;;;11.23;;
49450;SDS011;35336;48.400;10.886;2023-02-08T00:42:37;19.80;;;11.60;;
49450;SDS011;35336;48.400;10.886;2023-02-08T00:42:53;19.57;;;12.03;;
49450;SDS011;35336;48.400;10.886;2023-02-08T00:43:08;20.25;;;11.35;;
49450;SDS011;35336;48.400;10.886;2023-02-08T00:43:24;19.73;;;10.77;;
49450;SDS011;35336;48.400;10.886;2023-02-08T00:43:39;18.67;;;11.10;;
49450;SDS011;35336;48.400;10.886;2023-02-08T00:43:54;19.77;;;11.68;;
49450;SDS011;35336;48.400;10.886;2023-02-08T00:44:09;20.13;;;11.37;;
49450;SDS011;35336;48.400;10.886;2023-02-08T00:44:25;20.03;;;11.20;;
49450;SDS011;35336;48.400;10.886;2023-02-08T00:44:40;19.85;;;11.32;;
49450;SDS011;35336;48.400;10.886;2023-02-08T00:44:56;18.40;;;10.80;;
49450;SDS011;35336;48.400;10.886;2023-02-08T00:45:11;19.05;;;10.95;;
49450;SDS011;35336;48.400;10.886;2023-02-08T00:45:27;18.83;;;10.87;;
49450;SDS011;35336;48.400;10.886;2023-02-08T00:45:42;19.63;;;11.02;;
49450;SDS011;35336;48.400;10.886;2023-02-08T00:45:58;20.87;;;11.57;;
49450;SDS011;35336;48.400;10.886;2023-02-08T00:46:14;20.33;;;11.15;;
49450;SDS011;35336;48.400;10.886;2023-02-08T00:46:29;18.67;;;11.07;;
49450;SDS011;35336;48.400;10.886;2023-02-08T00:46:44;19.67;;;11.13;;
49450;SDS011;35336;48.400;10.886;2023-02-08T00:47:00;19.67;;;10.93;;
49450;SDS011;35336;48.400;10.886;2023-02-08T00:47:15;19.20;;;11.57;;
49450;SDS011;35336;48.400;10.886;2023-02-08T00:47:30;18.67;;;11.37;;
49450;SDS011;35336;48.400;10.886;2023-02-08T00:47:45;19.27;;;11.00;;
49450;SDS011;35336;48.400;10.886;2023-02-08T00:48:01;18.48;;;10.77;;
49450;SDS011;35336;48.400;10.886;2023-02-08T00:48:16;17.70;;;10.43;;
49450;SDS011;35336;48.400;10.886;2023-02-08T00:48:31;18.37;;;10.60;;
49450;SDS011;35336;48.400;10.886;2023-02-08T00:48:47;18.42;;;10.93;;
49450;SDS011;35336;48.400;10.886;2023-02-08T00:49:02;19.60;;;11.40;;
49450;SDS011;35336;48.400;10.886;2023-02-08T00:49:17;20.80;;;11.60;;
49450;SDS011;35336;48.400;10.886;2023-02-08T00:49:32;22.47;;;11.67;;
49450;SDS011;35336;48.400;10.886;2023-02-08T00:49:48;20.77;;;11.73;;
49450;SDS011;35336;48.400;10.886;2023-02-08T00:50:04;18.47;;;11.53;;
49450;SDS011;35336;48.400;10.886;2023-02-08T00:50:19;19.75;;;11.00;;
49450;SDS011;35336;48.400;10.886;2023-02-08T00:50:35;21.63;;;11.32;;
49450;SDS011;35336;48.400;10.886;2023-02-08T00:51:23;20.27;;;11.40;;
49450;SDS011;35336;48.400;10.886;2023-02-08T00:51:31;20.13;;;11.00;;
49450;SDS011;35336;48.400;10.886;2023-02-08T00:51:47;18.57;;;11.30;;
49450;SDS011;35336;48.400;10.886;2023-02-08T00:52:03;19.75;;;11.57;;
49450;SDS011;35336;48.400;10.886;2023-02-08T00:52:18;20.13;;;11.77;;
49450;SDS011;35336;48.400;10.886;2023-02-08T00:52:34;19.88;;;11.25;;
49450;SDS011;35336;48.400;10.886;2023-02-08T00:52:49;18.50;;;10.60;;
49450;SDS011;35336;48.400;10.886;2023-02-08T00:53:05;17.48;;;10.80;;
49450;SDS011;35336;48.400;10.886;2023-02-08T00:53:20;19.03;;;11.27;;
49450;SDS011;35336;48.400;10.886;2023-02-08T00:53:36;20.05;;;11.57;;
49450;SDS011;35336;48.400;10.886;2023-02-08T00:53:52;22.90;;;11.20;;
49450;SDS011;35336;48.400;10.886;2023-02-08T00:54:11;22.70;;;10.95;;
49450;SDS011;35336;48.400;10.886;2023-02-08T00:54:28;19.50;;;10.95;;
49450;SDS011;35336;48.400;10.886;2023-02-08T00:54:43;19.92;;;10.75;;
49450;SDS011;35336;48.400;10.886;2023-02-08T00:54:59;18.80;;;10.47;;
49450;SDS011;35336;48.400;10.886;2023-02-08T00:55:14;19.23;;;10.50;;
49450;SDS011;35336;48.400;10.886;2023-02-08T00:55:29;18.25;;;10.45;;
49450;SDS011;35336;48.400;10.886;2023-02-08T00:55:49;20.00;;;11.00;;
49450;SDS011;35336;48.400;10.886;2023-02-08T00:56:09;21.20;;;11.68;;
49450;SDS011;35336;48.400;10.886;2023-02-08T00:56:25;20.25;;;11.40;;
49450;SDS011;35336;48.400;10.886;2023-02-08T00:56:40;18.52;;;10.73;;
49450;SDS011;35336;48.400;10.886;2023-02-08T00:56:55;18.87;;;11.03;;
49450;SDS011;35336;48.400;10.886;2023-02-08T00:57:11;19.27;;;11.33;;
49450;SDS011;35336;48.400;10.886;2023-02-08T00:57:26;20.33;;;11.73;;
49450;SDS011;35336;48.400;10.886;2023-02-08T00:57:42;18.87;;;11.17;;
49450;SDS011;35336;48.400;10.886;2023-02-08T00:57:57;17.27;;;10.60;;
49450;SDS011;35336;48.400;10.886;2023-02-08T00:58:12;19.47;;;11.07;;
49450;SDS011;35336;48.400;10.886;2023-02-08T00:58:27;21.33;;;11.50;;
49450;SDS011;35336;48.400;10.886;2023-02-08T00:58:43;20.33;;;11.30;;
49450;SDS011;35336;48.400;10.886;2023-02-08T00:58:58;21.25;;;11.70;;
49450;SDS011;35336;48.400;10.886;2023-02-08T00:59:14;22.83;;;11.87;;
49450;SDS011;35336;48.400;10.886;2023-02-08T00:59:29;20.55;;;11.32;;
49450;SDS011;35336;48.400;10.886;2023-02-08T00:59:45;20.83;;;11.43;;
49450;SDS011;35336;48.400;10.886;2023-02-08T01:00:00;21.70;;;11.43;;
49450;SDS011;35336;48.400;10.886;2023-02-08T01:00:16;21.35;;;11.63;;
49450;SDS011;35336;48.400;10.886;2023-02-08T01:00:32;20.07;;;11.50;;
49450;SDS011;35336;48.400;10.886;2023-02-08T01:00:49;18.88;;;11.52;;
49450;SDS011;35336;48.400;10.886;2023-02-08T01:01:06;19.02;;;11.80;;
49450;SDS011;35336;48.400;10.886;2023-02-08T01:01:21;20.25;;;11.13;;
49450;SDS011;35336;48.400;10.886;2023-02-08T01:01:37;19.77;;;10.43;;
49450;SDS011;35336;48.400;10.886;2023-02-08T01:01:53;17.65;;;10.63;;
49450;SDS011;35336;48.400;10.886;2023-02-08T01:02:08;18.40;;;11.03;;
49450;SDS011;35336;48.400;10.886;2023-02-08T01:02:24;18.83;;;11.15;;
49450;SDS011;35336;48.400;10.886;2023-02-08T01:02:39;20.17;;;11.67;;
49450;SDS011;35336;48.400;10.886;2023-02-08T01:02:55;18.95;;;11.48;;
49450;SDS011;35336;48.400;10.886;2023-02-08T01:03:10;20.80;;;11.37;;
49450;SDS011;35336;48.400;10.886;2023-02-08T01:03:25;20.93;;;11.47;;
49450;SDS011;35336;48.400;10.886;2023-02-08T01:03:41;17.85;;;11.40;;
49450;SDS011;35336;48.400;10.886;2023-02-08T01:03:57;19.70;;;12.02;;
49450;SDS011;35336;48.400;10.886;2023-02-08T01:04:12;20.33;;;11.93;;
49450;SDS011;35336;48.400;10.886;2023-02-08T01:04:29;20.27;;;11.50;;
49450;SDS011;35336;48.400;10.886;2023-02-08T01:04:44;20.13;;;11.57;;
49450;SDS011;35336;48.400;10.886;2023-02-08T01:05:00;19.55;;;11.55;;
49450;SDS011;35336;48.400;10.886;2023-02-08T01:05:15;19.43;;;11.13;;
49450;SDS011;35336;48.400;10.886;2023-02-08T01:05:30;18.67;;;10.60;;
49450;SDS011;35336;48.400;10.886;2023-02-08T01:05:45;18.83;;;11.13;;
49450;SDS011;35336;48.400;10.886;2023-02-08T01:06:02;20.00;;;11.80;;
49450;SDS011;35336;48.400;10.886;2023-02-08T01:06:18;21.20;;;12.07;;
49450;SDS011;35336;48.400;10.886;2023-02-08T01:06:34;21.60;;;12.20;;
49450;SDS011;35336;48.400;10.886;2023-02-08T01:06:49;21.43;;;11.93;;
49450;SDS011;35336;48.400;10.886;2023-02-08T01:07:05;26.52;;;11.38;;
49450;SDS011;35336;48.400;10.886;2023-02-08T01:07:20;27.53;;;11.63;;
49450;SDS011;35336;48.400;10.886;2023-02-08T01:07:36;20.75;;;12.07;;
49450;SDS011;35336;48.400;10.886;2023-02-08T01:07:51;18.50;;;12.05;;
49450;SDS011;35336;48.400;10.886;2023-02-08T01:08:07;18.27;;;11.73;;
49450;SDS011;35336;48.400;10.886;2023-02-08T01:08:22;19.10;;;11.33;;
49450;SDS011;35336;48.400;10.886;2023-02-08T01:08:37;19.42;;;10.95;;
49450;SDS011;35336;48.400;10.886;2023-02-08T01:08:53;20.97;;;11.63;;
49450;SDS011;35336;48.400;10.886;2023-02-08T01:09:08;20.37;;;11.47;;
49450;SDS011;35336;48.400;10.886;2023-02-08T01:09:24;18.90;;;10.98;;
49450;SDS011;35336;48.400;10.886;2023-02-08T01:09:39;18.63;;;10.93;;
49450;SDS011;35336;48.400;10.886;2023-02-08T01:09:54;18.33;;;10.65;;
49450;SDS011;35336;48.400;10.886;2023-02-08T01:10:10;20.47;;;11.63;;
49450;SDS011;35336;48.400;10.886;2023-02-08T01:10:25;21.80;;;12.13;;
49450;SDS011;35336;48.400;10.886;2023-02-08T01:10:40;19.80;;;11.60;;
49450;SDS011;35336;48.400;10.886;2023-02-08T01:11:06;19.87;;;11.77;;
49450;SDS011;35336;48.400;10.886;2023-02-08T01:11:24;18.45;;;11.27;;
49450;SDS011;35336;48.400;10.886;2023-02-08T01:11:40;18.55;;;11.73;;
49450;SDS011;35336;48.400;10.886;2023-02-08T01:11:56;22.30;;;12.17;;
49450;SDS011;35336;48.400;10.886;2023-02-08T01:12:11;23.60;;;12.07;;
49450;SDS011;35336;48.400;10.886;2023-02-08T01:12:26;21.30;;;11.50;;
49450;SDS011;35336;48.400;10.886;2023-02-08T01:12:42;23.10;;;11.23;;
49450;SDS011;35336;48.400;10.886;2023-02-08T01:12:57;23.35;;;11.30;;
49450;SDS011;35336;48.400;10.886;2023-02-08T01:13:12;21.27;;;11.70;;
49450;SDS011;35336;48.400;10.886;2023-02-08T01:13:28;22.20;;;12.03;;
49450;SDS011;35336;48.400;10.886;2023-02-08T01:13:43;22.92;;;12.15;;
49450;SDS011;35336;48.400;10.886;2023-02-08T01:13:59;21.23;;;11.93;;
49450;SDS011;35336;48.400;10.886;2023-02-08T01:14:14;19.77;;;11.43;;
49450;SDS011;35336;48.400;10.886;2023-02-08T01:14:30;20.33;;;11.98;;
49450;SDS011;35336;48.400;10.886;2023-02-08T01:14:45;20.47;;;12.40;;
49450;SDS011;35336;48.400;10.886;2023-02-08T01:15:01;22.00;;;12.48;;
49450;SDS011;35336;48.400;10.886;2023-02-08T01:15:16;21.23;;;12.20;;
49450;SDS011;35336;48.400;10.886;2023-02-08T01:15:32;19.20;;;11.83;;
49450;SDS011;35336;48.400;10.886;2023-02-08T01:15:47;19.55;;;11.60;;
49450;SDS011;35336;48.400;10.886;2023-02-08T01:16:08;20.40;;;11.80;;
49450;SDS011;35336;48.400;10.886;2023-02-08T01:16:29;22.75;;;11.45;;
49450;SDS011;35336;48.400;10.886;2023-02-08T01:16:46;21.75;;;11.07;;
49450;SDS011;35336;48.400;10.886;2023-02-08T01:17:01;18.07;;;11.00;;
49450;SDS011;35336;48.400;10.886;2023-02-08T01:17:16;21.83;;;11.47;;
49450;SDS011;35336;48.400;10.886;2023-02-08T01:17:32;22.85;;;12.30;;
49450;SDS011;35336;48.400;10.886;2023-02-08T01:17:48;19.27;;;12.07;;
49450;SDS011;35336;48.400;10.886;2023-02-08T01:18:08;19.02;;;11.40;;
49450;SDS011;35336;48.400;10.886;2023-02-08T01:18:23;21.23;;;11.70;;
49450;SDS011;35336;48.400;10.886;2023-02-08T01:18:39;21.38;;;11.88;;
49450;SDS011;35336;48.400;10.886;2023-02-08T01:18:56;19.15;;;11.38;;
49450;SDS011;35336;48.400;10.886;2023-02-08T01:19:12;18.83;;;11.02;;
49450;SDS011;35336;48.400;10.886;2023-02-08T01:19:28;21.65;;;11.27;;
49450;SDS011;35336;48.400;10.886;2023-02-08T01:19:43;22.40;;;11.60;;
49450;SDS011;35336;48.400;10.886;2023-02-08T01:19:58;20.20;;;11.97;;
49450;SDS011;35336;48.400;10.886;2023-02-08T01:20:13;20.43;;;12.03;;
49450;SDS011;35336;48.400;10.886;2023-02-08T01:20:29;19.47;;;11.40;;
49450;SDS011;35336;48.400;10.886;2023-02-08T01:20:44;19.83;;;11.93;;
49450;SDS011;35336;48.400;10.886;2023-02-08T01:21:19;21.57;;;12.30;;
49450;SDS011;35336;48.400;10.886;2023-02-08T01:21:37;18.55;;;11.23;;
49450;SDS011;35336;48.400;10.886;2023-02-08T01:21:54;18.13;;;11.20;;
49450;SDS011;35336;48.400;10.886;2023-02-08T01:22:09;17.70;;;11.27;;
49450;SDS011;35336;48.400;10.886;2023-02-08T01:22:24;18.83;;;11.20;;
49450;SDS011;35336;48.400;10.886;2023-02-08T01:22:40;19.07;;;11.30;;
49450;SDS011;35336;48.400;10.886;2023-02-08T01:22:55;17.80;;;11.17;;
49450;SDS011;35336;48.400;10.886;2023-02-08T01:23:11;18.33;;;10.73;;
49450;SDS011;35336;48.400;10.886;2023-02-08T01:23:26;20.55;;;11.40;;
49450;SDS011;35336;48.400;10.886;2023-02-08T01:23:42;21.37;;;12.17;;
49450;SDS011;35336;48.400;10.886;2023-02-08T01:23:58;19.42;;;11.32;;
49450;SDS011;35336;48.400;10.886;2023-02-08T01:24:14;19.53;;;11.13;;
49450;SDS011;35336;48.400;10.886;2023-02-08T01:24:30;20.17;;;11.60;;
49450;SDS011;35336;48.400;10.886;2023-02-08T01:24:45;18.70;;;11.50;;
49450;SDS011;35336;48.400;10.886;2023-02-08T01:25:00;20.90;;;11.27;;
49450;SDS011;35336;48.400;10.886;2023-02-08T01:25:16;22.10;;;11.23;;
49450;SDS011;35336;48.400;10.886;2023-02-08T01:25:31;21.27;;;11.25;;
49450;SDS011;35336;48.400;10.886;2023-02-08T01:25:47;21.97;;;11.30;;
49450;SDS011;35336;48.400;10.886;2023-02-08T01:26:02;20.33;;;11.60;;
49450;SDS011;35336;48.400;10.886;2023-02-08T01:26:19;19.33;;;11.70;;
49450;SDS011;35336;48.400;10.886;2023-02-08T01:26:36;18.73;;;11.13;;
49450;SDS011;35336;48.400;10.886;2023-02-08T01:26:51;18.92;;;11.35;;
49450;SDS011;35336;48.400;10.886;2023-02-08T01:27:07;21.77;;;11.53;;
49450;SDS011;35336;48.400;10.886;2023-02-08T01:27:22;21.90;;;11.43;;
49450;SDS011;35336;48.400;10.886;2023-02-08T01:27:37;19.93;;;11.40;;
49450;SDS011;35336;48.400;10.886;2023-02-08T01:27:52;19.60;;;11.10;;
49450;SDS011;35336;48.400;10.886;2023-02-08T01:28:08;19.10;;;10.65;;
49450;SDS011;35336;48.400;10.886;2023-02-08T01:28:23;21.40;;;11.67;;
49450;SDS011;35336;48.400;10.886;2023-02-08T01:28:38;21.50;;;12.23;;
49450;SDS011;35336;48.400;10.886;2023-02-08T01:28:54;18.98;;;11.18;;
49450;SDS011;35336;48.400;10.886;2023-02-08T01:29:10;19.73;;;10.65;;
49450;SDS011;35336;48.400;10.886;2023-02-08T01:29:25;21.23;;;11.43;;
49450;SDS011;35336;48.400;10.886;2023-02-08T01:29:41;20.52;;;11.93;;
49450;SDS011;35336;48.400;10.886;2023-02-08T01:29:56;21.07;;;11.73;;
49450;SDS011;35336;48.400;10.886;2023-02-08T01:30:12;21.80;;;11.53;;
49450;SDS011;35336;48.400;10.886;2023-02-08T01:30:27;19.52;;;10.70;;
49450;SDS011;35336;48.400;10.886;2023-02-08T01:30:43;19.35;;;10.55;;
49450;SDS011;35336;48.400;10.886;2023-02-08T01:30:58;19.53;;;10.97;;
49450;SDS011;35336;48.400;10.886;2023-02-08T01:31:19;22.70;;;11.20;;